KISM

Kissimmee Gateway Airport

Orlando, Florida, USA
METAR KISM 170056Z 30006KT 10SM CLR 16/12 A3015 RMK AO2 SLP211 T01610122 PNO $
Observed Flight Rules
Dec-17 @ 00:56 UTC (35 minutes ago) Visual Flight Rules
Wind Visibility Clouds
300° at 6 knots 10 miles
  • Clear skies
Temperatures Readings
Current 16°C / 61°F
Dewpoint 12°C / 54°F
Humidity 77%
Altimeter 30.15" Hg
Pressure 1021.1 hPa
Elevation 25
METAR KISM 170056Z 30006KT 10SM CLR 16/12 A3015 RMK AO2 SLP211 T01610122 PNO $
Observed Flight Rules
Dec-17 @ 00:56 UTC
(35 minutes ago)
VFR
Wind Visibility
300° at 6 knots 10 miles
Clouds
  • Clear skies
Temperature Dewpoint
16°C / 61°F 12°C / 54°F
Humidity Altimeter Pressure
77% 30.15" Hg 1021.1 hPa